sensor_id;sensor_type;location;lat;lon;timestamp;pressure;altitude;pressure_sealevel;temperature;humidity
76052;BME280;64751;48.708;9.710;2023-04-24T14:32:48;97027.81;;;12.68;53.71
76052;BME280;64751;48.708;9.710;2023-04-24T14:35:16;97022.78;;;12.44;52.90
76052;BME280;64751;48.708;9.710;2023-04-24T14:37:44;97028.16;;;12.30;53.91
76052;BME280;64751;48.708;9.710;2023-04-24T14:40:12;97033.56;;;12.25;54.89
76052;BME280;64751;48.708;9.710;2023-04-24T14:42:40;97032.44;;;12.04;54.34
76052;BME280;64751;48.708;9.710;2023-04-24T14:45:08;97038.22;;;11.93;55.59
76052;BME280;64751;48.708;9.710;2023-04-24T14:47:36;97052.84;;;11.90;57.04
76052;BME280;64751;48.708;9.710;2023-04-24T14:50:07;97046.00;;;11.89;57.99
76052;BME280;64751;48.708;9.710;2023-04-24T14:52:35;97040.69;;;12.03;59.01
76052;BME280;64751;48.708;9.710;2023-04-24T14:55:04;97046.97;;;12.29;59.11
76052;BME280;64751;48.708;9.710;2023-04-24T14:57:33;97043.03;;;12.62;57.97
76052;BME280;64751;48.708;9.710;2023-04-24T15:00:02;97039.16;;;12.90;57.29
76052;BME280;64751;48.708;9.710;2023-04-24T15:02:32;97037.47;;;12.94;56.83
76052;BME280;64751;48.708;9.710;2023-04-24T15:05:00;97043.81;;;13.07;57.20
76052;BME280;64751;48.708;9.710;2023-04-24T15:07:30;97045.06;;;13.09;56.51
76052;BME280;64751;48.708;9.710;2023-04-24T15:09:58;97037.91;;;13.10;56.41
76052;BME280;64751;48.708;9.710;2023-04-24T15:12:25;97046.25;;;13.03;55.85
76052;BME280;64751;48.708;9.710;2023-04-24T15:14:54;97052.44;;;12.68;56.06
76052;BME280;64751;48.708;9.710;2023-04-24T15:17:22;97046.13;;;12.42;56.47
76052;BME280;64751;48.708;9.710;2023-04-24T15:19:50;97060.41;;;12.32;57.22
76052;BME280;64751;48.708;9.710;2023-04-24T15:22:17;97055.88;;;12.33;57.64
76052;BME280;64751;48.708;9.710;2023-04-24T15:24:47;97063.91;;;12.42;58.42
76052;BME280;64751;48.708;9.710;2023-04-24T15:27:14;97051.31;;;12.47;57.37
76052;BME280;64751;48.708;9.710;2023-04-24T15:29:42;97048.22;;;12.67;57.31
76052;BME280;64751;48.708;9.710;2023-04-24T15:32:10;97046.16;;;12.86;57.75
76052;BME280;64751;48.708;9.710;2023-04-24T15:34:38;97053.34;;;13.08;57.33
76052;BME280;64751;48.708;9.710;2023-04-24T15:37:06;97037.97;;;13.27;57.06
76052;BME280;64751;48.708;9.710;2023-04-24T15:39:34;97041.53;;;13.23;54.72
76052;BME280;64751;48.708;9.710;2023-04-24T15:42:03;97039.63;;;13.15;54.37
76052;BME280;64751;48.708;9.710;2023-04-24T15:44:31;97043.53;;;13.08;54.85
76052;BME280;64751;48.708;9.710;2023-04-24T15:47:00;97042.41;;;13.09;55.36
76052;BME280;64751;48.708;9.710;2023-04-24T15:49:28;97033.41;;;12.88;54.85
76052;BME280;64751;48.708;9.710;2023-04-24T15:51:55;97033.16;;;12.76;56.11
76052;BME280;64751;48.708;9.710;2023-04-24T15:54:23;97033.16;;;12.54;55.40
76052;BME280;64751;48.708;9.710;2023-04-24T15:56:51;97036.66;;;12.41;56.26
76052;BME280;64751;48.708;9.710;2023-04-24T15:59:20;97036.16;;;12.39;56.33
76052;BME280;64751;48.708;9.710;2023-04-24T16:01:48;97039.09;;;12.37;56.93
76052;BME280;64751;48.708;9.710;2023-04-24T16:04:16;97039.09;;;12.37;56.49
76052;BME280;64751;48.708;9.710;2023-04-24T16:06:44;97040.09;;;12.42;56.84
76052;BME280;64751;48.708;9.710;2023-04-24T16:09:12;97040.38;;;12.40;57.56
76052;BME280;64751;48.708;9.710;2023-04-24T16:11:40;97037.25;;;12.38;57.70
76052;BME280;64751;48.708;9.710;2023-04-24T16:14:08;97040.84;;;12.42;57.76
76052;BME280;64751;48.708;9.710;2023-04-24T16:16:37;97040.56;;;12.44;57.22
76052;BME280;64751;48.708;9.710;2023-04-24T16:19:05;97043.38;;;12.47;58.01
76052;BME280;64751;48.708;9.710;2023-04-24T16:21:33;97045.44;;;12.50;57.93
76052;BME280;64751;48.708;9.710;2023-04-24T16:24:01;97052.50;;;12.55;57.18
76052;BME280;64751;48.708;9.710;2023-04-24T16:26:28;97051.38;;;12.56;57.50
76052;BME280;64751;48.708;9.710;2023-04-24T16:28:56;97050.44;;;12.52;57.43
76052;BME280;64751;48.708;9.710;2023-04-24T16:31:23;97041.69;;;12.51;58.03
76052;BME280;64751;48.708;9.710;2023-04-24T16:33:53;97050.75;;;12.50;57.16
76052;BME280;64751;48.708;9.710;2023-04-24T16:36:21;97053.09;;;12.52;58.09
76052;BME280;64751;48.708;9.710;2023-04-24T16:38:48;97045.97;;;12.61;56.95
76052;BME280;64751;48.708;9.710;2023-04-24T16:41:16;97041.63;;;12.65;56.17
76052;BME280;64751;48.708;9.710;2023-04-24T16:43:44;97044.59;;;12.63;57.01
76052;BME280;64751;48.708;9.710;2023-04-24T16:46:12;97031.66;;;12.62;56.23
76052;BME280;64751;48.708;9.710;2023-04-24T16:48:40;97038.44;;;12.76;56.98
76052;BME280;64751;48.708;9.710;2023-04-24T16:51:09;97035.69;;;12.81;54.92
76052;BME280;64751;48.708;9.710;2023-04-24T16:53:37;97033.16;;;12.76;55.17
76052;BME280;64751;48.708;9.710;2023-04-24T16:56:05;97016.41;;;12.67;55.31
76052;BME280;64751;48.708;9.710;2023-04-24T16:58:33;97031.25;;;12.68;55.42
76052;BME280;64751;48.708;9.710;2023-04-24T17:01:00;97027.91;;;12.63;55.44
76052;BME280;64751;48.708;9.710;2023-04-24T17:03:28;97028.03;;;12.58;54.82
76052;BME280;64751;48.708;9.710;2023-04-24T17:05:56;97028.94;;;12.53;55.14
76052;BME280;64751;48.708;9.710;2023-04-24T17:08:25;97027.81;;;12.46;56.15
76052;BME280;64751;48.708;9.710;2023-04-24T17:10:53;97036.75;;;12.36;56.06
76052;BME280;64751;48.708;9.710;2023-04-24T17:13:21;97035.13;;;12.26;56.41
76052;BME280;64751;48.708;9.710;2023-04-24T17:15:48;97034.72;;;12.19;56.93
76052;BME280;64751;48.708;9.710;2023-04-24T17:18:16;97031.25;;;12.10;57.23
76052;BME280;64751;48.708;9.710;2023-04-24T17:20:44;97028.81;;;12.00;57.29
76052;BME280;64751;48.708;9.710;2023-04-24T17:23:12;97030.00;;;11.94;57.17
76052;BME280;64751;48.708;9.710;2023-04-24T17:25:41;97031.47;;;11.87;57.79
76052;BME280;64751;48.708;9.710;2023-04-24T17:28:14;97030.03;;;11.81;58.49
76052;BME280;64751;48.708;9.710;2023-04-24T17:30:42;97030.53;;;11.69;59.02
76052;BME280;64751;48.708;9.710;2023-04-24T17:33:10;97034.03;;;11.64;59.67
76052;BME280;64751;48.708;9.710;2023-04-24T17:35:38;97040.59;;;11.53;60.78
76052;BME280;64751;48.708;9.710;2023-04-24T17:38:06;97036.00;;;11.45;61.58
76052;BME280;64751;48.708;9.710;2023-04-24T17:40:33;97038.13;;;11.43;61.58
76052;BME280;64751;48.708;9.710;2023-04-24T17:43:04;97024.03;;;11.34;61.73
76052;BME280;64751;48.708;9.710;2023-04-24T17:45:32;97036.88;;;11.41;62.83
76052;BME280;64751;48.708;9.710;2023-04-24T17:48:00;97035.59;;;11.38;63.88
76052;BME280;64751;48.708;9.710;2023-04-24T17:50:28;97032.75;;;11.35;63.60
76052;BME280;64751;48.708;9.710;2023-04-24T17:52:55;97033.84;;;11.34;62.75
76052;BME280;64751;48.708;9.710;2023-04-24T17:55:23;97034.13;;;11.32;63.75
76052;BME280;64751;48.708;9.710;2023-04-24T17:57:51;97034.72;;;11.29;63.23
76052;BME280;64751;48.708;9.710;2023-04-24T18:00:20;97037.94;;;11.26;63.29
76052;BME280;64751;48.708;9.710;2023-04-24T18:02:48;97039.13;;;11.20;63.59
76052;BME280;64751;48.708;9.710;2023-04-24T18:05:17;97041.06;;;11.15;63.39
76052;BME280;64751;48.708;9.710;2023-04-24T18:07:45;97050.44;;;11.07;65.00
76052;BME280;64751;48.708;9.710;2023-04-24T18:10:12;97043.97;;;11.00;65.44
76052;BME280;64751;48.708;9.710;2023-04-24T18:12:40;97048.06;;;10.92;65.46
76052;BME280;64751;48.708;9.710;2023-04-24T18:15:09;97051.66;;;10.82;66.99
76052;BME280;64751;48.708;9.710;2023-04-24T18:17:38;97051.50;;;10.74;66.91
76052;BME280;64751;48.708;9.710;2023-04-24T18:20:07;97043.19;;;10.67;67.24
76052;BME280;64751;48.708;9.710;2023-04-24T18:22:35;97052.56;;;10.59;67.24
76052;BME280;64751;48.708;9.710;2023-04-24T18:25:03;97045.56;;;10.50;67.14
76052;BME280;64751;48.708;9.710;2023-04-24T18:27:31;97054.66;;;10.44;67.92
76052;BME280;64751;48.708;9.710;2023-04-24T18:29:59;97051.56;;;10.37;66.96
76052;BME280;64751;48.708;9.710;2023-04-24T18:32:28;97054.28;;;10.32;67.92
76052;BME280;64751;48.708;9.710;2023-04-24T18:34:57;97055.44;;;10.26;68.26
76052;BME280;64751;48.708;9.710;2023-04-24T18:37:25;97057.63;;;10.18;68.07
76052;BME280;64751;48.708;9.710;2023-04-24T18:39:53;97064.06;;;10.12;68.12
76052;BME280;64751;48.708;9.710;2023-04-24T18:42:21;97045.84;;;9.92;68.00
76052;BME280;64751;48.708;9.710;2023-04-24T18:44:49;97060.56;;;9.93;67.90
76052;BME280;64751;48.708;9.710;2023-04-24T18:47:18;97063.84;;;9.85;68.91
76052;BME280;64751;48.708;9.710;2023-04-24T18:49:46;97053.38;;;9.80;68.63
76052;BME280;64751;48.708;9.710;2023-04-24T18:52:15;97056.84;;;9.76;68.62
76052;BME280;64751;48.708;9.710;2023-04-24T18:54:43;97070.09;;;9.71;69.10
76052;BME280;64751;48.708;9.710;2023-04-24T18:57:10;97073.00;;;9.69;69.13
76052;BME280;64751;48.708;9.710;2023-04-24T18:59:38;97072.72;;;9.71;69.22
76052;BME280;64751;48.708;9.710;2023-04-24T19:02:06;97068.59;;;9.65;70.17
76052;BME280;64751;48.708;9.710;2023-04-24T19:04:34;97071.00;;;9.61;70.15
76052;BME280;64751;48.708;9.710;2023-04-24T19:07:01;97076.72;;;9.68;70.90
76052;BME280;64751;48.708;9.710;2023-04-24T19:09:30;97084.09;;;9.66;71.29
76052;BME280;64751;48.708;9.710;2023-04-24T19:11:58;97084.41;;;9.65;71.14
76052;BME280;64751;48.708;9.710;2023-04-24T19:14:26;97088.03;;;9.69;70.90
76052;BME280;64751;48.708;9.710;2023-04-24T19:16:54;97093.25;;;9.74;71.71
76052;BME280;64751;48.708;9.710;2023-04-24T19:19:21;97094.34;;;9.73;70.09
76052;BME280;64751;48.708;9.710;2023-04-24T19:21:51;97099.28;;;9.79;70.39
76052;BME280;64751;48.708;9.710;2023-04-24T19:24:19;97101.06;;;9.84;69.87
76052;BME280;64751;48.708;9.710;2023-04-24T19:26:48;97104.22;;;9.86;71.04
76052;BME280;64751;48.708;9.710;2023-04-24T19:29:16;97103.13;;;9.87;71.17
76052;BME280;64751;48.708;9.710;2023-04-24T19:31:44;97107.59;;;9.86;71.59
76052;BME280;64751;48.708;9.710;2023-04-24T19:34:11;97102.63;;;9.85;70.84
76052;BME280;64751;48.708;9.710;2023-04-24T19:36:39;97108.13;;;9.88;70.69
76052;BME280;64751;48.708;9.710;2023-04-24T19:39:08;97108.13;;;9.88;71.61
76052;BME280;64751;48.708;9.710;2023-04-24T19:41:36;97120.03;;;9.86;71.44
76052;BME280;64751;48.708;9.710;2023-04-24T19:44:06;97115.03;;;9.84;71.76
76052;BME280;64751;48.708;9.710;2023-04-24T19:46:33;97116.09;;;9.83;72.11
76052;BME280;64751;48.708;9.710;2023-04-24T19:49:01;97113.97;;;9.85;71.70
76052;BME280;64751;48.708;9.710;2023-04-24T19:51:29;97119.44;;;9.89;72.12
76052;BME280;64751;48.708;9.710;2023-04-24T19:53:58;97115.25;;;9.88;72.71
76052;BME280;64751;48.708;9.710;2023-04-24T19:56:26;97114.81;;;9.81;72.69
76052;BME280;64751;48.708;9.710;2023-04-24T19:58:54;97120.09;;;9.81;71.42
76052;BME280;64751;48.708;9.710;2023-04-24T20:01:23;97118.34;;;9.95;79.85
76052;BME280;64751;48.708;9.710;2023-04-24T20:03:51;97128.84;;;11.12;95.83
76052;BME280;64751;48.708;9.710;2023-04-24T20:06:18;97112.78;;;11.54;98.10
76052;BME280;64751;48.708;9.710;2023-04-24T20:08:46;97119.38;;;11.84;99.58
76052;BME280;64751;48.708;9.710;2023-04-24T20:11:15;97122.03;;;11.97;100.00
76052;BME280;64751;48.708;9.710;2023-04-24T20:13:43;97123.19;;;12.18;100.00
76052;BME280;64751;48.708;9.710;2023-04-24T20:16:11;97113.91;;;11.80;100.00
76052;BME280;64751;48.708;9.710;2023-04-24T20:18:40;97121.47;;;11.27;94.94
76052;BME280;64751;48.708;9.710;2023-04-24T20:21:08;97116.41;;;11.12;89.26
76052;BME280;64751;48.708;9.710;2023-04-24T20:23:35;97105.03;;;10.98;87.06
76052;BME280;64751;48.708;9.710;2023-04-24T20:26:03;97108.25;;;10.95;82.31
76052;BME280;64751;48.708;9.710;2023-04-24T20:28:33;97119.38;;;10.92;79.36
76052;BME280;64751;48.708;9.710;2023-04-24T20:31:02;97116.75;;;10.92;78.66
76052;BME280;64751;48.708;9.710;2023-04-24T20:33:29;97114.59;;;10.94;79.58
76052;BME280;64751;48.708;9.710;2023-04-24T20:35:59;97107.94;;;10.97;76.40
76052;BME280;64751;48.708;9.710;2023-04-24T20:38:26;97112.09;;;11.03;77.23
76052;BME280;64751;48.708;9.710;2023-04-24T20:40:54;97113.91;;;11.21;91.08
76052;BME280;64751;48.708;9.710;2023-04-24T20:43:22;97115.75;;;11.80;99.01
76052;BME280;64751;48.708;9.710;2023-04-24T20:45:51;97113.69;;;12.04;100.00
76052;BME280;64751;48.708;9.710;2023-04-24T20:48:19;97113.00;;;12.12;100.00
76052;BME280;64751;48.708;9.710;2023-04-24T20:50:47;97109.97;;;11.78;100.00
76052;BME280;64751;48.708;9.710;2023-04-24T20:53:16;97096.59;;;11.42;86.68
76052;BME280;64751;48.708;9.710;2023-04-24T20:55:44;97104.13;;;11.35;81.72
76052;BME280;64751;48.708;9.710;2023-04-24T20:58:12;97095.66;;;11.06;74.87
76052;BME280;64751;48.708;9.710;2023-04-24T21:00:40;97106.47;;;10.90;71.66
76052;BME280;64751;48.708;9.710;2023-04-24T21:03:08;97098.84;;;10.70;71.57
76052;BME280;64751;48.708;9.710;2023-04-24T21:05:36;97086.75;;;10.51;70.82
76052;BME280;64751;48.708;9.710;2023-04-24T21:08:03;97102.66;;;10.46;69.72
76052;BME280;64751;48.708;9.710;2023-04-24T21:10:33;97101.16;;;10.40;71.21
76052;BME280;64751;48.708;9.710;2023-04-24T21:13:01;97100.72;;;10.33;71.74
76052;BME280;64751;48.708;9.710;2023-04-24T21:15:28;97091.31;;;10.27;71.52
76052;BME280;64751;48.708;9.710;2023-04-24T21:17:56;97090.78;;;10.25;72.16
76052;BME280;64751;48.708;9.710;2023-04-24T21:20:24;97091.16;;;10.18;72.61
76052;BME280;64751;48.708;9.710;2023-04-24T21:22:52;97096.22;;;10.14;72.22
76052;BME280;64751;48.708;9.710;2023-04-24T21:25:19;97092.00;;;10.13;72.07
76052;BME280;64751;48.708;9.710;2023-04-24T21:27:48;97091.56;;;10.06;72.29
76052;BME280;64751;48.708;9.710;2023-04-24T21:30:16;97090.53;;;10.02;71.64
76052;BME280;64751;48.708;9.710;2023-04-24T21:32:44;97089.81;;;9.97;72.89
76052;BME280;64751;48.708;9.710;2023-04-24T21:35:12;97089.03;;;9.96;72.74
76052;BME280;64751;48.708;9.710;2023-04-24T21:37:39;97087.97;;;9.97;72.18
76052;BME280;64751;48.708;9.710;2023-04-24T21:40:09;97084.06;;;9.95;72.98
76052;BME280;64751;48.708;9.710;2023-04-24T21:42:38;97084.41;;;9.88;73.80
76052;BME280;64751;48.708;9.710;2023-04-24T21:45:09;97084.97;;;9.85;73.42
76052;BME280;64751;48.708;9.710;2023-04-24T21:47:36;97069.97;;;9.81;73.91
76052;BME280;64751;48.708;9.710;2023-04-24T21:50:05;97072.47;;;9.72;74.07
76052;BME280;64751;48.708;9.710;2023-04-24T21:52:33;97069.88;;;9.67;73.28
76052;BME280;64751;48.708;9.710;2023-04-24T21:55:01;97058.31;;;9.63;72.97
76052;BME280;64751;48.708;9.710;2023-04-24T21:57:28;97057.59;;;9.58;73.20
76052;BME280;64751;48.708;9.710;2023-04-24T21:59:56;97048.47;;;9.50;74.01
